sensor_id;sensor_type;location;lat;lon;timestamp;P1;durP1;ratioP1;P2;durP2;ratioP2
20008;SDS011;10165;42.662;23.260;2024-01-30T00:01:02;2.63;;;1.90;;
20008;SDS011;10165;42.662;23.260;2024-01-30T00:03:29;1.80;;;1.40;;
20008;SDS011;10165;42.662;23.260;2024-01-30T00:05:56;1.70;;;1.60;;
20008;SDS011;10165;42.662;23.260;2024-01-30T00:08:25;2.17;;;1.80;;
20008;SDS011;10165;42.662;23.260;2024-01-30T00:10:52;2.70;;;2.47;;
20008;SDS011;10165;42.662;23.260;2024-01-30T00:13:19;2.90;;;2.47;;
20008;SDS011;10165;42.662;23.260;2024-01-30T00:15:46;1.97;;;1.80;;
20008;SDS011;10165;42.662;23.260;2024-01-30T00:18:20;3.83;;;2.20;;
20008;SDS011;10165;42.662;23.260;2024-01-30T00:20:47;1.47;;;1.33;;
20008;SDS011;10165;42.662;23.260;2024-01-30T00:23:14;2.33;;;1.67;;
20008;SDS011;10165;42.662;23.260;2024-01-30T00:25:41;2.03;;;1.90;;
20008;SDS011;10165;42.662;23.260;2024-01-30T00:28:08;2.83;;;1.60;;
20008;SDS011;10165;42.662;23.260;2024-01-30T00:30:34;1.53;;;1.43;;
20008;SDS011;10165;42.662;23.260;2024-01-30T00:33:01;3.50;;;2.03;;
20008;SDS011;10165;42.662;23.260;2024-01-30T00:35:28;3.03;;;2.43;;
20008;SDS011;10165;42.662;23.260;2024-01-30T00:37:55;2.43;;;2.23;;
20008;SDS011;10165;42.662;23.260;2024-01-30T00:40:22;2.53;;;1.90;;
20008;SDS011;10165;42.662;23.260;2024-01-30T00:42:49;2.30;;;1.50;;
20008;SDS011;10165;42.662;23.260;2024-01-30T00:45:16;2.87;;;1.90;;
20008;SDS011;10165;42.662;23.260;2024-01-30T00:47:43;1.97;;;1.47;;
20008;SDS011;10165;42.662;23.260;2024-01-30T00:50:10;2.10;;;1.90;;
20008;SDS011;10165;42.662;23.260;2024-01-30T00:52:37;2.77;;;1.80;;
20008;SDS011;10165;42.662;23.260;2024-01-30T00:55:05;3.90;;;1.97;;
20008;SDS011;10165;42.662;23.260;2024-01-30T00:57:32;2.73;;;2.23;;
20008;SDS011;10165;42.662;23.260;2024-01-30T00:59:59;1.50;;;1.10;;
20008;SDS011;10165;42.662;23.260;2024-01-30T01:02:26;1.83;;;1.73;;
20008;SDS011;10165;42.662;23.260;2024-01-30T01:04:52;3.27;;;2.03;;
20008;SDS011;10165;42.662;23.260;2024-01-30T01:07:19;2.23;;;2.03;;
20008;SDS011;10165;42.662;23.260;2024-01-30T01:09:46;5.00;;;2.60;;
20008;SDS011;10165;42.662;23.260;2024-01-30T01:12:13;2.47;;;2.27;;
20008;SDS011;10165;42.662;23.260;2024-01-30T01:14:40;6.30;;;2.90;;
20008;SDS011;10165;42.662;23.260;2024-01-30T01:17:06;2.77;;;2.13;;
20008;SDS011;10165;42.662;23.260;2024-01-30T01:19:33;3.63;;;2.00;;
20008;SDS011;10165;42.662;23.260;2024-01-30T01:22:00;2.93;;;2.20;;
20008;SDS011;10165;42.662;23.260;2024-01-30T01:24:27;2.70;;;2.30;;
20008;SDS011;10165;42.662;23.260;2024-01-30T01:26:54;2.07;;;1.80;;
20008;SDS011;10165;42.662;23.260;2024-01-30T01:29:21;3.57;;;2.90;;
20008;SDS011;10165;42.662;23.260;2024-01-30T01:31:55;3.00;;;2.70;;
20008;SDS011;10165;42.662;23.260;2024-01-30T01:34:23;3.07;;;2.10;;
20008;SDS011;10165;42.662;23.260;2024-01-30T01:36:55;4.43;;;2.00;;
20008;SDS011;10165;42.662;23.260;2024-01-30T01:39:22;1.30;;;1.20;;
20008;SDS011;10165;42.662;23.260;2024-01-30T01:41:50;3.23;;;1.60;;
20008;SDS011;10165;42.662;23.260;2024-01-30T01:44:17;2.17;;;1.70;;
20008;SDS011;10165;42.662;23.260;2024-01-30T01:46:44;2.00;;;1.43;;
20008;SDS011;10165;42.662;23.260;2024-01-30T01:49:11;1.70;;;1.50;;
20008;SDS011;10165;42.662;23.260;2024-01-30T01:51:39;2.47;;;1.50;;
20008;SDS011;10165;42.662;23.260;2024-01-30T01:54:07;3.40;;;2.03;;
20008;SDS011;10165;42.662;23.260;2024-01-30T01:56:35;1.60;;;1.50;;
20008;SDS011;10165;42.662;23.260;2024-01-30T01:59:04;3.83;;;2.10;;
20008;SDS011;10165;42.662;23.260;2024-01-30T02:01:34;2.93;;;1.77;;
20008;SDS011;10165;42.662;23.260;2024-01-30T02:04:05;4.00;;;2.10;;
20008;SDS011;10165;42.662;23.260;2024-01-30T02:06:34;2.33;;;1.50;;
20008;SDS011;10165;42.662;23.260;2024-01-30T02:09:01;2.20;;;1.50;;
20008;SDS011;10165;42.662;23.260;2024-01-30T02:11:28;2.03;;;1.77;;
20008;SDS011;10165;42.662;23.260;2024-01-30T02:13:55;3.23;;;1.67;;
20008;SDS011;10165;42.662;23.260;2024-01-30T02:16:22;3.43;;;2.00;;
20008;SDS011;10165;42.662;23.260;2024-01-30T02:18:48;3.30;;;2.50;;
20008;SDS011;10165;42.662;23.260;2024-01-30T02:21:16;1.87;;;1.73;;
20008;SDS011;10165;42.662;23.260;2024-01-30T02:23:43;1.47;;;1.37;;
20008;SDS011;10165;42.662;23.260;2024-01-30T02:26:17;2.03;;;1.83;;
20008;SDS011;10165;42.662;23.260;2024-01-30T02:28:49;1.77;;;1.60;;
20008;SDS011;10165;42.662;23.260;2024-01-30T02:31:16;2.93;;;1.77;;
20008;SDS011;10165;42.662;23.260;2024-01-30T02:33:43;2.20;;;1.43;;
20008;SDS011;10165;42.662;23.260;2024-01-30T02:36:10;1.40;;;1.30;;
20008;SDS011;10165;42.662;23.260;2024-01-30T02:38:37;3.90;;;2.60;;
20008;SDS011;10165;42.662;23.260;2024-01-30T02:41:03;1.93;;;1.70;;
20008;SDS011;10165;42.662;23.260;2024-01-30T02:43:30;2.43;;;1.43;;
20008;SDS011;10165;42.662;23.260;2024-01-30T02:45:57;3.50;;;2.07;;
20008;SDS011;10165;42.662;23.260;2024-01-30T02:48:24;2.50;;;1.77;;
20008;SDS011;10165;42.662;23.260;2024-01-30T02:50:51;3.83;;;2.03;;
20008;SDS011;10165;42.662;23.260;2024-01-30T02:53:18;2.27;;;1.70;;
20008;SDS011;10165;42.662;23.260;2024-01-30T02:55:45;3.07;;;2.10;;
20008;SDS011;10165;42.662;23.260;2024-01-30T02:58:11;2.93;;;1.87;;
20008;SDS011;10165;42.662;23.260;2024-01-30T03:00:38;2.40;;;2.10;;
20008;SDS011;10165;42.662;23.260;2024-01-30T03:03:05;2.73;;;1.87;;
20008;SDS011;10165;42.662;23.260;2024-01-30T03:05:42;1.83;;;1.60;;
20008;SDS011;10165;42.662;23.260;2024-01-30T03:08:09;1.53;;;1.33;;
20008;SDS011;10165;42.662;23.260;2024-01-30T03:10:36;2.23;;;1.40;;
20008;SDS011;10165;42.662;23.260;2024-01-30T03:13:02;1.27;;;1.27;;
20008;SDS011;10165;42.662;23.260;2024-01-30T03:15:29;2.07;;;1.50;;
20008;SDS011;10165;42.662;23.260;2024-01-30T03:17:56;1.33;;;1.13;;
20008;SDS011;10165;42.662;23.260;2024-01-30T03:20:23;3.83;;;1.33;;
20008;SDS011;10165;42.662;23.260;2024-01-30T03:22:50;1.33;;;1.23;;
20008;SDS011;10165;42.662;23.260;2024-01-30T03:25:17;2.10;;;1.80;;
20008;SDS011;10165;42.662;23.260;2024-01-30T03:27:44;2.13;;;1.63;;
20008;SDS011;10165;42.662;23.260;2024-01-30T03:30:10;2.40;;;1.47;;
20008;SDS011;10165;42.662;23.260;2024-01-30T03:32:37;1.53;;;1.40;;
20008;SDS011;10165;42.662;23.260;2024-01-30T03:35:09;1.00;;;1.00;;
20008;SDS011;10165;42.662;23.260;2024-01-30T03:37:36;2.73;;;1.43;;
20008;SDS011;10165;42.662;23.260;2024-01-30T03:40:03;1.00;;;0.97;;
20008;SDS011;10165;42.662;23.260;2024-01-30T03:42:30;3.77;;;1.40;;
20008;SDS011;10165;42.662;23.260;2024-01-30T03:44:56;3.57;;;1.73;;
20008;SDS011;10165;42.662;23.260;2024-01-30T03:47:23;1.13;;;1.10;;
20008;SDS011;10165;42.662;23.260;2024-01-30T03:49:50;1.50;;;1.23;;
20008;SDS011;10165;42.662;23.260;2024-01-30T03:52:17;1.40;;;1.20;;
20008;SDS011;10165;42.662;23.260;2024-01-30T03:54:44;1.37;;;0.90;;
20008;SDS011;10165;42.662;23.260;2024-01-30T03:57:10;1.10;;;1.00;;
20008;SDS011;10165;42.662;23.260;2024-01-30T03:59:37;1.57;;;1.40;;
20008;SDS011;10165;42.662;23.260;2024-01-30T04:02:04;2.67;;;1.43;;
20008;SDS011;10165;42.662;23.260;2024-01-30T04:04:31;2.10;;;1.30;;
20008;SDS011;10165;42.662;23.260;2024-01-30T04:06:58;1.40;;;1.10;;
20008;SDS011;10165;42.662;23.260;2024-01-30T04:09:25;8.83;;;1.33;;
20008;SDS011;10165;42.662;23.260;2024-01-30T04:11:53;3.70;;;1.97;;
20008;SDS011;10165;42.662;23.260;2024-01-30T04:14:19;1.10;;;1.10;;
20008;SDS011;10165;42.662;23.260;2024-01-30T04:16:46;1.70;;;1.60;;
20008;SDS011;10165;42.662;23.260;2024-01-30T04:19:18;3.97;;;2.53;;
20008;SDS011;10165;42.662;23.260;2024-01-30T04:21:44;1.20;;;1.10;;
20008;SDS011;10165;42.662;23.260;2024-01-30T04:24:11;1.33;;;1.23;;
20008;SDS011;10165;42.662;23.260;2024-01-30T04:26:38;1.63;;;1.53;;
20008;SDS011;10165;42.662;23.260;2024-01-30T04:29:05;1.10;;;1.10;;
20008;SDS011;10165;42.662;23.260;2024-01-30T04:31:32;2.00;;;1.37;;
20008;SDS011;10165;42.662;23.260;2024-01-30T04:33:58;1.80;;;1.63;;
20008;SDS011;10165;42.662;23.260;2024-01-30T04:36:25;1.50;;;1.40;;
20008;SDS011;10165;42.662;23.260;2024-01-30T04:39:06;2.07;;;1.43;;
20008;SDS011;10165;42.662;23.260;2024-01-30T04:41:32;1.07;;;0.97;;
20008;SDS011;10165;42.662;23.260;2024-01-30T04:44:00;1.83;;;1.67;;
20008;SDS011;10165;42.662;23.260;2024-01-30T04:46:26;2.07;;;1.67;;
20008;SDS011;10165;42.662;23.260;2024-01-30T04:48:54;1.73;;;1.40;;
20008;SDS011;10165;42.662;23.260;2024-01-30T04:51:21;3.87;;;1.67;;
20008;SDS011;10165;42.662;23.260;2024-01-30T04:53:48;1.20;;;1.10;;
20008;SDS011;10165;42.662;23.260;2024-01-30T04:56:14;1.70;;;1.43;;
20008;SDS011;10165;42.662;23.260;2024-01-30T04:58:41;3.47;;;1.50;;
20008;SDS011;10165;42.662;23.260;2024-01-30T05:01:08;3.53;;;1.50;;
20008;SDS011;10165;42.662;23.260;2024-01-30T05:03:35;22.63;;;1.90;;
20008;SDS011;10165;42.662;23.260;2024-01-30T05:06:02;1.60;;;1.30;;
20008;SDS011;10165;42.662;23.260;2024-01-30T05:08:28;2.57;;;1.33;;
20008;SDS011;10165;42.662;23.260;2024-01-30T05:10:55;2.73;;;1.73;;
20008;SDS011;10165;42.662;23.260;2024-01-30T05:13:22;2.60;;;1.80;;
20008;SDS011;10165;42.662;23.260;2024-01-30T05:15:49;2.50;;;1.83;;
20008;SDS011;10165;42.662;23.260;2024-01-30T05:18:21;2.20;;;1.43;;
20008;SDS011;10165;42.662;23.260;2024-01-30T05:20:49;3.07;;;2.03;;
20008;SDS011;10165;42.662;23.260;2024-01-30T05:23:16;1.40;;;1.27;;
20008;SDS011;10165;42.662;23.260;2024-01-30T05:25:43;1.87;;;1.17;;
20008;SDS011;10165;42.662;23.260;2024-01-30T05:28:09;2.23;;;1.67;;
20008;SDS011;10165;42.662;23.260;2024-01-30T05:30:36;5.43;;;1.83;;
20008;SDS011;10165;42.662;23.260;2024-01-30T05:33:03;2.00;;;1.40;;
20008;SDS011;10165;42.662;23.260;2024-01-30T05:35:30;1.93;;;1.60;;
20008;SDS011;10165;42.662;23.260;2024-01-30T05:37:57;2.47;;;1.97;;
20008;SDS011;10165;42.662;23.260;2024-01-30T05:40:24;5.63;;;3.43;;
20008;SDS011;10165;42.662;23.260;2024-01-30T05:42:51;8.80;;;4.20;;
20008;SDS011;10165;42.662;23.260;2024-01-30T05:45:17;25.67;;;9.90;;
20008;SDS011;10165;42.662;23.260;2024-01-30T05:47:44;31.33;;;10.83;;
20008;SDS011;10165;42.662;23.260;2024-01-30T05:50:11;16.20;;;7.33;;
20008;SDS011;10165;42.662;23.260;2024-01-30T05:52:38;10.43;;;6.47;;
20008;SDS011;10165;42.662;23.260;2024-01-30T05:55:04;16.40;;;7.37;;
20008;SDS011;10165;42.662;23.260;2024-01-30T05:57:32;6.67;;;4.07;;
20008;SDS011;10165;42.662;23.260;2024-01-30T05:59:59;3.77;;;2.67;;
20008;SDS011;10165;42.662;23.260;2024-01-30T06:02:25;5.50;;;3.40;;
20008;SDS011;10165;42.662;23.260;2024-01-30T06:05:02;5.13;;;3.17;;
20008;SDS011;10165;42.662;23.260;2024-01-30T06:07:36;4.73;;;3.07;;
20008;SDS011;10165;42.662;23.260;2024-01-30T06:10:17;3.33;;;2.40;;
20008;SDS011;10165;42.662;23.260;2024-01-30T06:12:44;2.30;;;2.10;;
20008;SDS011;10165;42.662;23.260;2024-01-30T06:15:20;2.80;;;2.40;;
20008;SDS011;10165;42.662;23.260;2024-01-30T06:18:02;2.80;;;1.30;;
20008;SDS011;10165;42.662;23.260;2024-01-30T06:20:34;17.90;;;2.47;;
20008;SDS011;10165;42.662;23.260;2024-01-30T06:23:00;4.43;;;1.70;;
20008;SDS011;10165;42.662;23.260;2024-01-30T06:25:27;1.90;;;1.50;;
20008;SDS011;10165;42.662;23.260;2024-01-30T06:28:08;4.37;;;2.80;;
20008;SDS011;10165;42.662;23.260;2024-01-30T06:30:34;2.43;;;2.17;;
20008;SDS011;10165;42.662;23.260;2024-01-30T06:33:12;1.00;;;1.00;;
20008;SDS011;10165;42.662;23.260;2024-01-30T06:35:40;18.47;;;2.80;;
20008;SDS011;10165;42.662;23.260;2024-01-30T06:38:12;1.83;;;1.73;;
20008;SDS011;10165;42.662;23.260;2024-01-30T06:40:39;1.80;;;1.67;;
20008;SDS011;10165;42.662;23.260;2024-01-30T06:43:06;1.43;;;1.33;;
20008;SDS011;10165;42.662;23.260;2024-01-30T06:45:34;1.07;;;1.07;;
20008;SDS011;10165;42.662;23.260;2024-01-30T06:48:01;2.07;;;1.50;;
20008;SDS011;10165;42.662;23.260;2024-01-30T06:50:27;2.87;;;1.87;;
20008;SDS011;10165;42.662;23.260;2024-01-30T06:52:54;3.43;;;1.90;;
20008;SDS011;10165;42.662;23.260;2024-01-30T06:55:21;2.03;;;1.77;;
20008;SDS011;10165;42.662;23.260;2024-01-30T06:58:04;1.53;;;1.43;;
20008;SDS011;10165;42.662;23.260;2024-01-30T07:00:31;2.17;;;2.00;;
20008;SDS011;10165;42.662;23.260;2024-01-30T07:02:58;1.90;;;1.37;;
20008;SDS011;10165;42.662;23.260;2024-01-30T07:05:24;4.80;;;2.03;;
20008;SDS011;10165;42.662;23.260;2024-01-30T07:07:51;1.87;;;1.73;;
20008;SDS011;10165;42.662;23.260;2024-01-30T07:10:18;1.53;;;1.43;;
20008;SDS011;10165;42.662;23.260;2024-01-30T07:12:45;3.33;;;1.73;;
20008;SDS011;10165;42.662;23.260;2024-01-30T07:15:12;3.13;;;1.77;;
20008;SDS011;10165;42.662;23.260;2024-01-30T07:17:41;3.03;;;1.80;;
20008;SDS011;10165;42.662;23.260;2024-01-30T07:20:07;3.23;;;1.93;;
20008;SDS011;10165;42.662;23.260;2024-01-30T07:22:44;1.53;;;1.20;;
20008;SDS011;10165;42.662;23.260;2024-01-30T07:25:10;1.40;;;1.30;;
20008;SDS011;10165;42.662;23.260;2024-01-30T07:27:37;1.30;;;1.20;;
20008;SDS011;10165;42.662;23.260;2024-01-30T07:30:04;2.93;;;1.67;;
20008;SDS011;10165;42.662;23.260;2024-01-30T07:32:32;3.23;;;1.60;;
20008;SDS011;10165;42.662;23.260;2024-01-30T07:34:59;1.97;;;1.77;;
20008;SDS011;10165;42.662;23.260;2024-01-30T07:37:34;1.73;;;1.07;;
20008;SDS011;10165;42.662;23.260;2024-01-30T07:40:02;1.47;;;1.20;;
20008;SDS011;10165;42.662;23.260;2024-01-30T07:42:30;2.07;;;1.10;;
20008;SDS011;10165;42.662;23.260;2024-01-30T07:44:57;1.33;;;1.23;;
20008;SDS011;10165;42.662;23.260;2024-01-30T07:47:24;2.10;;;1.17;;
20008;SDS011;10165;42.662;23.260;2024-01-30T07:49:50;3.33;;;1.50;;
20008;SDS011;10165;42.662;23.260;2024-01-30T07:52:27;6.27;;;1.87;;
20008;SDS011;10165;42.662;23.260;2024-01-30T07:54:54;2.33;;;2.17;;
20008;SDS011;10165;42.662;23.260;2024-01-30T07:57:22;1.90;;;1.20;;
20008;SDS011;10165;42.662;23.260;2024-01-30T07:59:48;2.13;;;1.83;;
20008;SDS011;10165;42.662;23.260;2024-01-30T08:02:15;1.30;;;1.20;;
20008;SDS011;10165;42.662;23.260;2024-01-30T08:04:42;1.03;;;1.00;;
20008;SDS011;10165;42.662;23.260;2024-01-30T08:07:09;2.50;;;1.33;;
20008;SDS011;10165;42.662;23.260;2024-01-30T08:09:36;1.00;;;0.93;;
20008;SDS011;10165;42.662;23.260;2024-01-30T08:12:02;1.23;;;1.13;;
20008;SDS011;10165;42.662;23.260;2024-01-30T08:14:35;1.00;;;1.00;;
20008;SDS011;10165;42.662;23.260;2024-01-30T08:17:01;9.03;;;1.47;;
20008;SDS011;10165;42.662;23.260;2024-01-30T08:19:28;1.37;;;1.10;;
20008;SDS011;10165;42.662;23.260;2024-01-30T08:22:02;1.60;;;1.23;;
20008;SDS011;10165;42.662;23.260;2024-01-30T08:24:29;1.50;;;1.40;;
20008;SDS011;10165;42.662;23.260;2024-01-30T08:27:12;4.03;;;1.33;;
20008;SDS011;10165;42.662;23.260;2024-01-30T08:29:39;1.20;;;1.10;;
20008;SDS011;10165;42.662;23.260;2024-01-30T08:32:05;0.90;;;0.90;;
20008;SDS011;10165;42.662;23.260;2024-01-30T08:34:33;1.63;;;1.53;;
20008;SDS011;10165;42.662;23.260;2024-01-30T08:37:12;3.03;;;1.60;;
20008;SDS011;10165;42.662;23.260;2024-01-30T08:39:43;1.40;;;1.30;;
20008;SDS011;10165;42.662;23.260;2024-01-30T08:42:12;2.10;;;1.73;;
20008;SDS011;10165;42.662;23.260;2024-01-30T08:44:38;6.80;;;1.20;;
20008;SDS011;10165;42.662;23.260;2024-01-30T08:47:05;1.50;;;1.30;;
20008;SDS011;10165;42.662;23.260;2024-01-30T08:49:42;1.60;;;1.50;;
20008;SDS011;10165;42.662;23.260;2024-01-30T08:52:24;1.33;;;1.23;;
20008;SDS011;10165;42.662;23.260;2024-01-30T08:54:51;1.30;;;1.20;;
20008;SDS011;10165;42.662;23.260;2024-01-30T08:57:31;2.90;;;1.53;;
20008;SDS011;10165;42.662;23.260;2024-01-30T09:00:08;1.30;;;1.10;;
20008;SDS011;10165;42.662;23.260;2024-01-30T09:02:36;2.43;;;1.40;;
20008;SDS011;10165;42.662;23.260;2024-01-30T09:05:11;2.13;;;1.93;;
20008;SDS011;10165;42.662;23.260;2024-01-30T09:08:02;2.57;;;2.00;;
20008;SDS011;10165;42.662;23.260;2024-01-30T09:10:36;1.57;;;1.47;;
20008;SDS011;10165;42.662;23.260;2024-01-30T09:13:03;0.80;;;0.77;;
20008;SDS011;10165;42.662;23.260;2024-01-30T09:15:30;2.80;;;1.90;;
20008;SDS011;10165;42.662;23.260;2024-01-30T09:18:07;2.60;;;1.33;;
20008;SDS011;10165;42.662;23.260;2024-01-30T09:20:47;3.37;;;1.70;;
20008;SDS011;10165;42.662;23.260;2024-01-30T09:23:28;3.87;;;1.30;;
20008;SDS011;10165;42.662;23.260;2024-01-30T09:26:02;3.70;;;1.97;;
20008;SDS011;10165;42.662;23.260;2024-01-30T09:28:34;1.77;;;1.23;;
20008;SDS011;10165;42.662;23.260;2024-01-30T09:31:02;1.90;;;1.50;;
20008;SDS011;10165;42.662;23.260;2024-01-30T09:33:29;6.73;;;2.53;;
20008;SDS011;10165;42.662;23.260;2024-01-30T09:35:55;1.90;;;1.57;;
20008;SDS011;10165;42.662;23.260;2024-01-30T09:38:23;2.10;;;1.90;;
20008;SDS011;10165;42.662;23.260;2024-01-30T09:40:51;1.33;;;1.23;;
20008;SDS011;10165;42.662;23.260;2024-01-30T09:43:29;1.13;;;1.03;;
20008;SDS011;10165;42.662;23.260;2024-01-30T09:46:01;1.17;;;1.07;;
20008;SDS011;10165;42.662;23.260;2024-01-30T09:48:30;2.00;;;1.67;;
20008;SDS011;10165;42.662;23.260;2024-01-30T09:50:57;2.97;;;1.67;;
20008;SDS011;10165;42.662;23.260;2024-01-30T09:53:24;2.30;;;1.83;;
20008;SDS011;10165;42.662;23.260;2024-01-30T09:56:02;1.17;;;1.10;;
20008;SDS011;10165;42.662;23.260;2024-01-30T09:58:29;1.53;;;1.37;;
20008;SDS011;10165;42.662;23.260;2024-01-30T10:00:56;1.70;;;1.10;;
20008;SDS011;10165;42.662;23.260;2024-01-30T10:03:25;3.23;;;1.63;;
20008;SDS011;10165;42.662;23.260;2024-01-30T10:06:01;2.13;;;1.80;;
20008;SDS011;10165;42.662;23.260;2024-01-30T10:08:28;2.30;;;1.67;;
20008;SDS011;10165;42.662;23.260;2024-01-30T10:10:57;2.00;;;1.57;;
20008;SDS011;10165;42.662;23.260;2024-01-30T10:13:25;1.03;;;0.93;;
20008;SDS011;10165;42.662;23.260;2024-01-30T10:15:57;3.07;;;1.87;;
20008;SDS011;10165;42.662;23.260;2024-01-30T10:18:29;4.13;;;2.57;;
20008;SDS011;10165;42.662;23.260;2024-01-30T10:20:56;4.13;;;1.63;;
20008;SDS011;10165;42.662;23.260;2024-01-30T10:23:23;7.07;;;2.83;;
20008;SDS011;10165;42.662;23.260;2024-01-30T10:25:52;2.47;;;1.80;;
20008;SDS011;10165;42.662;23.260;2024-01-30T10:28:19;2.50;;;1.60;;
20008;SDS011;10165;42.662;23.260;2024-01-30T10:30:56;1.43;;;1.33;;
20008;SDS011;10165;42.662;23.260;2024-01-30T10:33:27;1.93;;;1.60;;
20008;SDS011;10165;42.662;23.260;2024-01-30T10:36:00;1.70;;;1.60;;
20008;SDS011;10165;42.662;23.260;2024-01-30T10:38:28;1.57;;;1.40;;
20008;SDS011;10165;42.662;23.260;2024-01-30T10:40:57;1.30;;;1.20;;
20008;SDS011;10165;42.662;23.260;2024-01-30T10:43:32;1.67;;;1.43;;
20008;SDS011;10165;42.662;23.260;2024-01-30T10:46:17;2.00;;;1.80;;
20008;SDS011;10165;42.662;23.260;2024-01-30T10:48:55;1.83;;;1.40;;
20008;SDS011;10165;42.662;23.260;2024-01-30T10:51:29;1.10;;;1.10;;
20008;SDS011;10165;42.662;23.260;2024-01-30T10:54:13;1.40;;;1.30;;
20008;SDS011;10165;42.662;23.260;2024-01-30T10:56:41;2.03;;;1.40;;
20008;SDS011;10165;42.662;23.260;2024-01-30T10:59:09;2.43;;;1.67;;
20008;SDS011;10165;42.662;23.260;2024-01-30T11:01:37;2.07;;;1.53;;
20008;SDS011;10165;42.662;23.260;2024-01-30T11:04:09;1.20;;;1.10;;
20008;SDS011;10165;42.662;23.260;2024-01-30T11:06:43;2.00;;;1.40;;
20008;SDS011;10165;42.662;23.260;2024-01-30T11:09:10;3.77;;;2.40;;
20008;SDS011;10165;42.662;23.260;2024-01-30T11:11:51;3.13;;;1.87;;
20008;SDS011;10165;42.662;23.260;2024-01-30T11:14:27;1.60;;;1.50;;
20008;SDS011;10165;42.662;23.260;2024-01-30T11:16:59;1.67;;;1.57;;
20008;SDS011;10165;42.662;23.260;2024-01-30T11:19:27;1.73;;;1.53;;
20008;SDS011;10165;42.662;23.260;2024-01-30T11:21:57;1.83;;;1.50;;
20008;SDS011;10165;42.662;23.260;2024-01-30T11:24:24;1.90;;;1.57;;
20008;SDS011;10165;42.662;23.260;2024-01-30T11:26:57;2.17;;;1.97;;
20008;SDS011;10165;42.662;23.260;2024-01-30T11:29:25;6.27;;;1.63;;
20008;SDS011;10165;42.662;23.260;2024-01-30T11:31:54;1.63;;;1.50;;
20008;SDS011;10165;42.662;23.260;2024-01-30T11:34:21;2.67;;;1.97;;
20008;SDS011;10165;42.662;23.260;2024-01-30T11:39:31;1.73;;;1.37;;
20008;SDS011;10165;42.662;23.260;2024-01-30T11:41:58;1.97;;;1.47;;
20008;SDS011;10165;42.662;23.260;2024-01-30T11:44:26;2.53;;;2.00;;
20008;SDS011;10165;42.662;23.260;2024-01-30T11:46:57;2.33;;;1.73;;
20008;SDS011;10165;42.662;23.260;2024-01-30T11:49:23;6.20;;;2.27;;
20008;SDS011;10165;42.662;23.260;2024-01-30T11:51:50;2.93;;;2.03;;
20008;SDS011;10165;42.662;23.260;2024-01-30T11:54:27;3.70;;;1.70;;
20008;SDS011;10165;42.662;23.260;2024-01-30T11:56:54;2.97;;;1.97;;
20008;SDS011;10165;42.662;23.260;2024-01-30T11:59:21;2.33;;;1.90;;
20008;SDS011;10165;42.662;23.260;2024-01-30T12:01:48;2.90;;;1.90;;
20008;SDS011;10165;42.662;23.260;2024-01-30T12:04:15;2.57;;;1.93;;
20008;SDS011;10165;42.662;23.260;2024-01-30T12:06:42;4.67;;;3.60;;
20008;SDS011;10165;42.662;23.260;2024-01-30T12:09:22;17.40;;;8.77;;
20008;SDS011;10165;42.662;23.260;2024-01-30T12:11:49;21.27;;;10.33;;
20008;SDS011;10165;42.662;23.260;2024-01-30T12:14:26;8.47;;;3.40;;
20008;SDS011;10165;42.662;23.260;2024-01-30T12:16:53;3.27;;;2.10;;
20008;SDS011;10165;42.662;23.260;2024-01-30T12:19:25;4.40;;;2.33;;
20008;SDS011;10165;42.662;23.260;2024-01-30T12:21:58;2.03;;;1.80;;
20008;SDS011;10165;42.662;23.260;2024-01-30T12:24:29;4.13;;;2.13;;
20008;SDS011;10165;42.662;23.260;2024-01-30T12:27:07;1.87;;;1.53;;
20008;SDS011;10165;42.662;23.260;2024-01-30T12:29:44;18.50;;;5.97;;
20008;SDS011;10165;42.662;23.260;2024-01-30T12:32:15;6.03;;;3.70;;
20008;SDS011;10165;42.662;23.260;2024-01-30T12:34:43;12.77;;;5.73;;
20008;SDS011;10165;42.662;23.260;2024-01-30T12:37:29;13.87;;;5.97;;
20008;SDS011;10165;42.662;23.260;2024-01-30T12:39:57;10.80;;;5.20;;
20008;SDS011;10165;42.662;23.260;2024-01-30T12:42:25;20.37;;;6.93;;
20008;SDS011;10165;42.662;23.260;2024-01-30T12:45:07;9.93;;;4.10;;
20008;SDS011;10165;42.662;23.260;2024-01-30T12:47:34;10.93;;;4.50;;
20008;SDS011;10165;42.662;23.260;2024-01-30T12:50:01;29.90;;;5.07;;
20008;SDS011;10165;42.662;23.260;2024-01-30T12:52:28;6.33;;;3.80;;
20008;SDS011;10165;42.662;23.260;2024-01-30T12:54:55;14.77;;;4.30;;
20008;SDS011;10165;42.662;23.260;2024-01-30T12:57:22;4.43;;;2.80;;
20008;SDS011;10165;42.662;23.260;2024-01-30T12:59:58;10.27;;;3.83;;
20008;SDS011;10165;42.662;23.260;2024-01-30T13:02:25;4.27;;;2.67;;
20008;SDS011;10165;42.662;23.260;2024-01-30T13:04:54;10.97;;;5.57;;
20008;SDS011;10165;42.662;23.260;2024-01-30T13:07:21;7.10;;;3.83;;
20008;SDS011;10165;42.662;23.260;2024-01-30T13:09:48;5.53;;;2.23;;
20008;SDS011;10165;42.662;23.260;2024-01-30T13:12:14;2.60;;;1.87;;
20008;SDS011;10165;42.662;23.260;2024-01-30T13:14:41;2.67;;;1.60;;
20008;SDS011;10165;42.662;23.260;2024-01-30T13:17:08;12.87;;;4.63;;
20008;SDS011;10165;42.662;23.260;2024-01-30T13:19:35;6.00;;;3.73;;
20008;SDS011;10165;42.662;23.260;2024-01-30T13:22:02;3.73;;;2.57;;
20008;SDS011;10165;42.662;23.260;2024-01-30T13:24:29;9.07;;;4.77;;
20008;SDS011;10165;42.662;23.260;2024-01-30T13:26:55;11.73;;;4.33;;
20008;SDS011;10165;42.662;23.260;2024-01-30T13:29:22;4.90;;;2.47;;
20008;SDS011;10165;42.662;23.260;2024-01-30T13:31:49;2.87;;;1.60;;
20008;SDS011;10165;42.662;23.260;2024-01-30T13:34:16;4.50;;;2.43;;
20008;SDS011;10165;42.662;23.260;2024-01-30T13:36:43;3.33;;;2.20;;
20008;SDS011;10165;42.662;23.260;2024-01-30T13:39:11;2.73;;;1.83;;
20008;SDS011;10165;42.662;23.260;2024-01-30T13:41:39;7.90;;;2.37;;
20008;SDS011;10165;42.662;23.260;2024-01-30T13:44:05;12.30;;;5.87;;
20008;SDS011;10165;42.662;23.260;2024-01-30T13:46:32;5.77;;;2.97;;
20008;SDS011;10165;42.662;23.260;2024-01-30T13:48:59;10.50;;;3.77;;
20008;SDS011;10165;42.662;23.260;2024-01-30T13:51:26;7.40;;;3.53;;
20008;SDS011;10165;42.662;23.260;2024-01-30T13:53:54;3.13;;;2.13;;
20008;SDS011;10165;42.662;23.260;2024-01-30T13:56:20;6.33;;;2.43;;
20008;SDS011;10165;42.662;23.260;2024-01-30T13:58:48;1.90;;;1.77;;
20008;SDS011;10165;42.662;23.260;2024-01-30T14:01:16;2.20;;;1.73;;
20008;SDS011;10165;42.662;23.260;2024-01-30T14:03:43;5.90;;;2.97;;
20008;SDS011;10165;42.662;23.260;2024-01-30T14:06:11;4.47;;;2.63;;
20008;SDS011;10165;42.662;23.260;2024-01-30T14:08:38;4.63;;;2.87;;
20008;SDS011;10165;42.662;23.260;2024-01-30T14:11:08;3.23;;;1.83;;
20008;SDS011;10165;42.662;23.260;2024-01-30T14:13:36;2.73;;;2.50;;
20008;SDS011;10165;42.662;23.260;2024-01-30T14:16:03;2.80;;;2.03;;
20008;SDS011;10165;42.662;23.260;2024-01-30T14:18:32;3.00;;;2.20;;
20008;SDS011;10165;42.662;23.260;2024-01-30T14:20:59;3.03;;;2.73;;
20008;SDS011;10165;42.662;23.260;2024-01-30T14:23:26;3.93;;;2.40;;
20008;SDS011;10165;42.662;23.260;2024-01-30T14:25:52;2.47;;;2.27;;
20008;SDS011;10165;42.662;23.260;2024-01-30T14:28:19;9.67;;;2.47;;
20008;SDS011;10165;42.662;23.260;2024-01-30T14:30:46;5.83;;;3.30;;
20008;SDS011;10165;42.662;23.260;2024-01-30T14:33:14;4.20;;;2.73;;
20008;SDS011;10165;42.662;23.260;2024-01-30T14:35:41;6.53;;;3.47;;
20008;SDS011;10165;42.662;23.260;2024-01-30T14:38:08;2.90;;;2.60;;
20008;SDS011;10165;42.662;23.260;2024-01-30T14:40:34;5.30;;;2.70;;
20008;SDS011;10165;42.662;23.260;2024-01-30T14:43:01;2.87;;;1.90;;
20008;SDS011;10165;42.662;23.260;2024-01-30T14:45:30;2.17;;;1.77;;